sensor_id;sensor_type;location;lat;lon;timestamp;temperature;humidity
81935;DHT22;71405;47.674;-2.050;2023-08-17T00:00:10;22.50;64.50
81935;DHT22;71405;47.674;-2.050;2023-08-17T00:02:39;22.50;64.50
81935;DHT22;71405;47.674;-2.050;2023-08-17T00:05:05;22.50;64.60
81935;DHT22;71405;47.674;-2.050;2023-08-17T00:07:32;22.50;64.50
81935;DHT22;71405;47.674;-2.050;2023-08-17T00:09:58;22.50;64.50
81935;DHT22;71405;47.674;-2.050;2023-08-17T00:12:24;22.50;64.60
81935;DHT22;71405;47.674;-2.050;2023-08-17T00:14:51;22.50;64.60
81935;DHT22;71405;47.674;-2.050;2023-08-17T00:17:17;22.50;64.60
81935;DHT22;71405;47.674;-2.050;2023-08-17T00:19:43;22.50;64.60
81935;DHT22;71405;47.674;-2.050;2023-08-17T00:22:08;22.50;64.60
81935;DHT22;71405;47.674;-2.050;2023-08-17T00:24:34;22.50;64.70
81935;DHT22;71405;47.674;-2.050;2023-08-17T00:27:00;22.50;64.60
81935;DHT22;71405;47.674;-2.050;2023-08-17T00:29:25;22.50;64.60
81935;DHT22;71405;47.674;-2.050;2023-08-17T00:31:51;22.50;64.60
81935;DHT22;71405;47.674;-2.050;2023-08-17T00:34:18;22.50;64.60
81935;DHT22;71405;47.674;-2.050;2023-08-17T00:36:44;22.50;64.60
81935;DHT22;71405;47.674;-2.050;2023-08-17T00:39:09;22.50;64.60
81935;DHT22;71405;47.674;-2.050;2023-08-17T00:41:35;22.50;64.60
81935;DHT22;71405;47.674;-2.050;2023-08-17T00:44:01;22.50;64.70
81935;DHT22;71405;47.674;-2.050;2023-08-17T00:46:27;22.40;64.70
81935;DHT22;71405;47.674;-2.050;2023-08-17T00:48:54;22.40;64.70
81935;DHT22;71405;47.674;-2.050;2023-08-17T00:51:22;22.40;64.70
81935;DHT22;71405;47.674;-2.050;2023-08-17T00:53:50;22.40;64.80
81935;DHT22;71405;47.674;-2.050;2023-08-17T00:56:16;22.40;64.70
81935;DHT22;71405;47.674;-2.050;2023-08-17T00:58:43;22.50;64.70
81935;DHT22;71405;47.674;-2.050;2023-08-17T01:01:08;22.40;64.70
81935;DHT22;71405;47.674;-2.050;2023-08-17T01:03:34;22.40;64.70
81935;DHT22;71405;47.674;-2.050;2023-08-17T01:06:00;22.40;64.80
81935;DHT22;71405;47.674;-2.050;2023-08-17T01:08:28;22.40;64.80
81935;DHT22;71405;47.674;-2.050;2023-08-17T01:13:25;22.40;64.90
81935;DHT22;71405;47.674;-2.050;2023-08-17T01:15:58;22.40;64.90
81935;DHT22;71405;47.674;-2.050;2023-08-17T01:18:29;22.40;64.90
81935;DHT22;71405;47.674;-2.050;2023-08-17T01:20:57;22.40;64.90
81935;DHT22;71405;47.674;-2.050;2023-08-17T01:23:23;22.40;65.10
81935;DHT22;71405;47.674;-2.050;2023-08-17T01:25:48;22.40;65.10
81935;DHT22;71405;47.674;-2.050;2023-08-17T01:28:14;22.40;65.00
81935;DHT22;71405;47.674;-2.050;2023-08-17T01:33:20;22.40;65.00
81935;DHT22;71405;47.674;-2.050;2023-08-17T01:36:11;22.40;64.90
81935;DHT22;71405;47.674;-2.050;2023-08-17T01:38:40;22.40;65.10
81935;DHT22;71405;47.674;-2.050;2023-08-17T01:41:07;22.40;65.10
81935;DHT22;71405;47.674;-2.050;2023-08-17T01:43:39;22.40;65.10
81935;DHT22;71405;47.674;-2.050;2023-08-17T01:46:07;22.40;65.20
81935;DHT22;71405;47.674;-2.050;2023-08-17T01:48:33;22.40;65.20
81935;DHT22;71405;47.674;-2.050;2023-08-17T01:50:58;22.40;65.20
81935;DHT22;71405;47.674;-2.050;2023-08-17T01:53:24;22.40;65.20
81935;DHT22;71405;47.674;-2.050;2023-08-17T01:55:50;22.40;65.30
81935;DHT22;71405;47.674;-2.050;2023-08-17T01:58:15;22.40;65.20
81935;DHT22;71405;47.674;-2.050;2023-08-17T02:00:41;22.40;65.20
81935;DHT22;71405;47.674;-2.050;2023-08-17T02:03:07;22.40;65.10
81935;DHT22;71405;47.674;-2.050;2023-08-17T02:05:33;22.40;65.50
81935;DHT22;71405;47.674;-2.050;2023-08-17T02:07:58;22.40;65.40
81935;DHT22;71405;47.674;-2.050;2023-08-17T02:10:24;22.40;65.30
81935;DHT22;71405;47.674;-2.050;2023-08-17T02:12:50;22.40;65.20
81935;DHT22;71405;47.674;-2.050;2023-08-17T02:15:16;22.40;65.30
81935;DHT22;71405;47.674;-2.050;2023-08-17T02:17:41;22.40;65.40
81935;DHT22;71405;47.674;-2.050;2023-08-17T02:20:07;22.40;65.30
81935;DHT22;71405;47.674;-2.050;2023-08-17T02:22:34;22.40;65.50
81935;DHT22;71405;47.674;-2.050;2023-08-17T02:24:59;22.30;65.50
81935;DHT22;71405;47.674;-2.050;2023-08-17T02:27:26;22.40;65.40
81935;DHT22;71405;47.674;-2.050;2023-08-17T02:29:51;22.40;65.40
81935;DHT22;71405;47.674;-2.050;2023-08-17T02:32:17;22.30;65.40
81935;DHT22;71405;47.674;-2.050;2023-08-17T02:34:43;22.30;65.40
81935;DHT22;71405;47.674;-2.050;2023-08-17T02:37:09;22.30;65.30
81935;DHT22;71405;47.674;-2.050;2023-08-17T02:39:34;22.30;65.50
81935;DHT22;71405;47.674;-2.050;2023-08-17T02:42:00;22.30;65.70
81935;DHT22;71405;47.674;-2.050;2023-08-17T02:44:26;22.30;65.20
81935;DHT22;71405;47.674;-2.050;2023-08-17T02:46:53;22.30;65.20
81935;DHT22;71405;47.674;-2.050;2023-08-17T02:49:19;22.30;65.30
81935;DHT22;71405;47.674;-2.050;2023-08-17T02:51:45;22.30;65.10
81935;DHT22;71405;47.674;-2.050;2023-08-17T02:54:11;22.30;65.30
81935;DHT22;71405;47.674;-2.050;2023-08-17T02:56:37;22.30;65.30
81935;DHT22;71405;47.674;-2.050;2023-08-17T02:59:02;22.30;65.40
81935;DHT22;71405;47.674;-2.050;2023-08-17T03:01:28;22.30;65.30
81935;DHT22;71405;47.674;-2.050;2023-08-17T03:03:55;22.30;65.20
81935;DHT22;71405;47.674;-2.050;2023-08-17T03:06:20;22.30;65.40
81935;DHT22;71405;47.674;-2.050;2023-08-17T03:08:46;22.30;65.40
81935;DHT22;71405;47.674;-2.050;2023-08-17T03:11:12;22.30;65.30
81935;DHT22;71405;47.674;-2.050;2023-08-17T03:13:38;22.30;65.60
81935;DHT22;71405;47.674;-2.050;2023-08-17T03:16:03;22.30;65.50
81935;DHT22;71405;47.674;-2.050;2023-08-17T03:18:29;22.30;65.50
81935;DHT22;71405;47.674;-2.050;2023-08-17T03:20:55;22.30;65.60
81935;DHT22;71405;47.674;-2.050;2023-08-17T03:23:20;22.30;65.50
81935;DHT22;71405;47.674;-2.050;2023-08-17T03:25:50;22.30;65.60
81935;DHT22;71405;47.674;-2.050;2023-08-17T03:28:16;22.30;65.70
81935;DHT22;71405;47.674;-2.050;2023-08-17T03:30:42;22.30;65.40
81935;DHT22;71405;47.674;-2.050;2023-08-17T03:33:08;22.30;65.60
81935;DHT22;71405;47.674;-2.050;2023-08-17T03:35:34;22.30;65.70
81935;DHT22;71405;47.674;-2.050;2023-08-17T03:38:00;22.30;65.70
81935;DHT22;71405;47.674;-2.050;2023-08-17T03:40:25;22.30;65.50
81935;DHT22;71405;47.674;-2.050;2023-08-17T03:42:51;22.30;65.50
81935;DHT22;71405;47.674;-2.050;2023-08-17T03:45:17;22.30;65.70
81935;DHT22;71405;47.674;-2.050;2023-08-17T03:47:43;22.30;65.60
81935;DHT22;71405;47.674;-2.050;2023-08-17T03:50:09;22.30;65.50
81935;DHT22;71405;47.674;-2.050;2023-08-17T03:52:35;22.20;65.40
81935;DHT22;71405;47.674;-2.050;2023-08-17T03:55:01;22.20;65.70
81935;DHT22;71405;47.674;-2.050;2023-08-17T03:57:27;22.20;65.60
81935;DHT22;71405;47.674;-2.050;2023-08-17T03:59:52;22.30;65.50
81935;DHT22;71405;47.674;-2.050;2023-08-17T04:02:18;22.30;65.40
81935;DHT22;71405;47.674;-2.050;2023-08-17T04:04:44;22.20;65.40
81935;DHT22;71405;47.674;-2.050;2023-08-17T04:07:09;22.20;65.20
81935;DHT22;71405;47.674;-2.050;2023-08-17T04:09:35;22.20;65.50
81935;DHT22;71405;47.674;-2.050;2023-08-17T04:12:01;22.20;65.60
81935;DHT22;71405;47.674;-2.050;2023-08-17T04:14:29;22.20;65.70
81935;DHT22;71405;47.674;-2.050;2023-08-17T04:16:55;22.20;65.70
81935;DHT22;71405;47.674;-2.050;2023-08-17T04:19:22;22.20;65.70
81935;DHT22;71405;47.674;-2.050;2023-08-17T04:21:47;22.20;65.60
81935;DHT22;71405;47.674;-2.050;2023-08-17T04:24:13;22.20;65.40
81935;DHT22;71405;47.674;-2.050;2023-08-17T04:26:39;22.20;65.70
81935;DHT22;71405;47.674;-2.050;2023-08-17T04:29:04;22.30;65.50
81935;DHT22;71405;47.674;-2.050;2023-08-17T04:31:30;22.20;65.40
81935;DHT22;71405;47.674;-2.050;2023-08-17T04:33:55;22.20;65.40
81935;DHT22;71405;47.674;-2.050;2023-08-17T04:36:21;22.20;65.50
81935;DHT22;71405;47.674;-2.050;2023-08-17T04:38:47;22.20;65.60
81935;DHT22;71405;47.674;-2.050;2023-08-17T04:41:12;22.20;65.60
81935;DHT22;71405;47.674;-2.050;2023-08-17T04:43:38;22.20;65.50
81935;DHT22;71405;47.674;-2.050;2023-08-17T04:46:04;22.20;65.50
81935;DHT22;71405;47.674;-2.050;2023-08-17T04:48:29;22.20;65.70
81935;DHT22;71405;47.674;-2.050;2023-08-17T04:50:55;22.20;65.80
81935;DHT22;71405;47.674;-2.050;2023-08-17T04:53:21;22.20;65.70
81935;DHT22;71405;47.674;-2.050;2023-08-17T04:55:46;22.20;65.50
81935;DHT22;71405;47.674;-2.050;2023-08-17T04:58:12;22.20;65.30
81935;DHT22;71405;47.674;-2.050;2023-08-17T05:00:38;22.20;65.20
81935;DHT22;71405;47.674;-2.050;2023-08-17T05:03:04;22.20;65.00
81935;DHT22;71405;47.674;-2.050;2023-08-17T05:05:29;22.10;64.90
81935;DHT22;71405;47.674;-2.050;2023-08-17T05:07:55;22.00;65.10
81935;DHT22;71405;47.674;-2.050;2023-08-17T05:10:21;22.10;65.10
81935;DHT22;71405;47.674;-2.050;2023-08-17T05:12:46;22.10;65.30
81935;DHT22;71405;47.674;-2.050;2023-08-17T05:15:12;22.10;65.10
81935;DHT22;71405;47.674;-2.050;2023-08-17T05:17:38;22.10;65.20
81935;DHT22;71405;47.674;-2.050;2023-08-17T05:20:04;22.10;65.50
81935;DHT22;71405;47.674;-2.050;2023-08-17T05:22:30;22.10;65.60
81935;DHT22;71405;47.674;-2.050;2023-08-17T05:24:55;22.10;65.60
81935;DHT22;71405;47.674;-2.050;2023-08-17T05:27:21;22.10;65.70
81935;DHT22;71405;47.674;-2.050;2023-08-17T05:29:47;22.20;65.70
81935;DHT22;71405;47.674;-2.050;2023-08-17T05:32:12;22.10;65.70
81935;DHT22;71405;47.674;-2.050;2023-08-17T05:34:38;22.10;65.20
81935;DHT22;71405;47.674;-2.050;2023-08-17T05:37:04;22.00;65.20
81935;DHT22;71405;47.674;-2.050;2023-08-17T05:39:29;22.00;65.40
81935;DHT22;71405;47.674;-2.050;2023-08-17T05:41:55;22.00;65.40
81935;DHT22;71405;47.674;-2.050;2023-08-17T05:44:21;22.10;65.40
81935;DHT22;71405;47.674;-2.050;2023-08-17T05:46:47;22.10;65.50
81935;DHT22;71405;47.674;-2.050;2023-08-17T05:49:13;22.10;65.20
81935;DHT22;71405;47.674;-2.050;2023-08-17T05:51:39;22.10;65.60
81935;DHT22;71405;47.674;-2.050;2023-08-17T05:54:05;22.10;65.60
81935;DHT22;71405;47.674;-2.050;2023-08-17T05:56:31;22.10;65.70
81935;DHT22;71405;47.674;-2.050;2023-08-17T05:58:57;22.10;65.60
81935;DHT22;71405;47.674;-2.050;2023-08-17T06:01:22;22.10;65.30
81935;DHT22;71405;47.674;-2.050;2023-08-17T06:03:48;22.00;65.30
81935;DHT22;71405;47.674;-2.050;2023-08-17T06:06:15;22.10;65.40
81935;DHT22;71405;47.674;-2.050;2023-08-17T06:08:40;22.00;65.30
81935;DHT22;71405;47.674;-2.050;2023-08-17T06:11:06;22.10;65.50
81935;DHT22;71405;47.674;-2.050;2023-08-17T06:13:32;22.10;65.40
81935;DHT22;71405;47.674;-2.050;2023-08-17T06:15:57;22.00;65.50
81935;DHT22;71405;47.674;-2.050;2023-08-17T06:18:23;22.00;65.50
81935;DHT22;71405;47.674;-2.050;2023-08-17T06:20:49;22.00;65.50
81935;DHT22;71405;47.674;-2.050;2023-08-17T06:23:17;22.00;65.50
81935;DHT22;71405;47.674;-2.050;2023-08-17T06:25:43;22.00;65.60
81935;DHT22;71405;47.674;-2.050;2023-08-17T06:28:08;22.00;65.60
81935;DHT22;71405;47.674;-2.050;2023-08-17T06:30:34;22.00;65.60
81935;DHT22;71405;47.674;-2.050;2023-08-17T06:33:00;22.00;65.70
81935;DHT22;71405;47.674;-2.050;2023-08-17T06:35:25;22.00;65.90
81935;DHT22;71405;47.674;-2.050;2023-08-17T06:37:51;22.00;66.00
81935;DHT22;71405;47.674;-2.050;2023-08-17T06:40:19;22.00;65.90
81935;DHT22;71405;47.674;-2.050;2023-08-17T06:42:45;22.00;66.50
81935;DHT22;71405;47.674;-2.050;2023-08-17T06:45:11;22.00;66.70
81935;DHT22;71405;47.674;-2.050;2023-08-17T06:47:37;22.00;66.80
81935;DHT22;71405;47.674;-2.050;2023-08-17T06:50:03;22.00;66.90
81935;DHT22;71405;47.674;-2.050;2023-08-17T06:52:29;22.00;66.80
81935;DHT22;71405;47.674;-2.050;2023-08-17T06:54:55;22.00;67.00
81935;DHT22;71405;47.674;-2.050;2023-08-17T06:57:20;22.00;67.00
81935;DHT22;71405;47.674;-2.050;2023-08-17T06:59:47;22.00;67.00
81935;DHT22;71405;47.674;-2.050;2023-08-17T07:02:13;22.10;67.00
81935;DHT22;71405;47.674;-2.050;2023-08-17T07:04:38;22.10;67.00
81935;DHT22;71405;47.674;-2.050;2023-08-17T07:07:04;22.10;67.00
81935;DHT22;71405;47.674;-2.050;2023-08-17T07:09:30;22.10;67.00
81935;DHT22;71405;47.674;-2.050;2023-08-17T07:11:55;22.10;67.00
81935;DHT22;71405;47.674;-2.050;2023-08-17T07:14:21;22.10;66.90
81935;DHT22;71405;47.674;-2.050;2023-08-17T07:16:47;22.10;67.10
81935;DHT22;71405;47.674;-2.050;2023-08-17T07:19:12;22.10;67.10
81935;DHT22;71405;47.674;-2.050;2023-08-17T07:21:39;22.10;67.00
81935;DHT22;71405;47.674;-2.050;2023-08-17T07:24:15;22.10;67.10
81935;DHT22;71405;47.674;-2.050;2023-08-17T07:26:41;22.10;67.10
81935;DHT22;71405;47.674;-2.050;2023-08-17T07:29:07;22.10;67.30
81935;DHT22;71405;47.674;-2.050;2023-08-17T07:31:33;22.10;67.40
81935;DHT22;71405;47.674;-2.050;2023-08-17T07:34:03;22.20;67.40
81935;DHT22;71405;47.674;-2.050;2023-08-17T07:36:29;22.20;67.50
81935;DHT22;71405;47.674;-2.050;2023-08-17T07:38:54;22.20;67.40
81935;DHT22;71405;47.674;-2.050;2023-08-17T07:41:20;22.20;67.50
81935;DHT22;71405;47.674;-2.050;2023-08-17T07:43:46;22.20;67.40
81935;DHT22;71405;47.674;-2.050;2023-08-17T07:46:11;22.20;67.40
81935;DHT22;71405;47.674;-2.050;2023-08-17T07:48:37;22.20;67.40
81935;DHT22;71405;47.674;-2.050;2023-08-17T07:51:02;22.20;67.60
81935;DHT22;71405;47.674;-2.050;2023-08-17T07:53:28;22.20;67.60
81935;DHT22;71405;47.674;-2.050;2023-08-17T07:55:54;22.20;67.60
81935;DHT22;71405;47.674;-2.050;2023-08-17T07:58:19;22.20;67.80
81935;DHT22;71405;47.674;-2.050;2023-08-17T08:00:45;22.20;67.80
81935;DHT22;71405;47.674;-2.050;2023-08-17T08:03:11;22.30;67.80
81935;DHT22;71405;47.674;-2.050;2023-08-17T08:05:36;22.30;67.90
81935;DHT22;71405;47.674;-2.050;2023-08-17T08:08:02;22.30;67.80
81935;DHT22;71405;47.674;-2.050;2023-08-17T08:10:28;22.30;67.90
81935;DHT22;71405;47.674;-2.050;2023-08-17T08:12:54;22.30;67.70
81935;DHT22;71405;47.674;-2.050;2023-08-17T08:15:20;22.30;67.70
81935;DHT22;71405;47.674;-2.050;2023-08-17T08:17:45;22.30;67.80
81935;DHT22;71405;47.674;-2.050;2023-08-17T08:20:11;22.30;67.70
81935;DHT22;71405;47.674;-2.050;2023-08-17T08:22:37;22.40;67.70
81935;DHT22;71405;47.674;-2.050;2023-08-17T08:25:02;22.40;67.70
81935;DHT22;71405;47.674;-2.050;2023-08-17T08:27:28;22.40;67.80
81935;DHT22;71405;47.674;-2.050;2023-08-17T08:29:54;22.40;67.70
81935;DHT22;71405;47.674;-2.050;2023-08-17T08:32:19;22.40;67.80
81935;DHT22;71405;47.674;-2.050;2023-08-17T08:34:45;22.40;68.00
81935;DHT22;71405;47.674;-2.050;2023-08-17T08:37:11;22.40;68.00
81935;DHT22;71405;47.674;-2.050;2023-08-17T08:39:53;22.40;68.10
81935;DHT22;71405;47.674;-2.050;2023-08-17T08:42:20;22.50;68.20
81935;DHT22;71405;47.674;-2.050;2023-08-17T08:44:46;22.50;68.10
81935;DHT22;71405;47.674;-2.050;2023-08-17T08:47:12;22.50;68.20
81935;DHT22;71405;47.674;-2.050;2023-08-17T08:52:19;22.50;68.10
81935;DHT22;71405;47.674;-2.050;2023-08-17T08:54:50;22.50;68.10
81935;DHT22;71405;47.674;-2.050;2023-08-17T08:57:19;22.50;68.10
81935;DHT22;71405;47.674;-2.050;2023-08-17T08:59:45;22.50;68.10
81935;DHT22;71405;47.674;-2.050;2023-08-17T09:02:16;22.50;68.00
81935;DHT22;71405;47.674;-2.050;2023-08-17T09:04:45;22.60;67.90
81935;DHT22;71405;47.674;-2.050;2023-08-17T09:07:14;22.60;67.90
81935;DHT22;71405;47.674;-2.050;2023-08-17T09:09:42;22.60;68.00
81935;DHT22;71405;47.674;-2.050;2023-08-17T09:12:09;22.50;67.90
81935;DHT22;71405;47.674;-2.050;2023-08-17T09:14:36;22.60;68.00
81935;DHT22;71405;47.674;-2.050;2023-08-17T09:17:03;22.60;67.80
81935;DHT22;71405;47.674;-2.050;2023-08-17T09:19:31;22.60;68.00
81935;DHT22;71405;47.674;-2.050;2023-08-17T09:21:58;22.60;68.10
81935;DHT22;71405;47.674;-2.050;2023-08-17T09:24:24;22.60;68.30
81935;DHT22;71405;47.674;-2.050;2023-08-17T09:26:50;22.60;68.30
81935;DHT22;71405;47.674;-2.050;2023-08-17T09:29:20;22.60;68.30
81935;DHT22;71405;47.674;-2.050;2023-08-17T09:31:46;22.60;68.10
81935;DHT22;71405;47.674;-2.050;2023-08-17T09:34:14;22.60;68.10
81935;DHT22;71405;47.674;-2.050;2023-08-17T09:36:41;22.60;68.00
81935;DHT22;71405;47.674;-2.050;2023-08-17T09:39:07;22.60;68.00
81935;DHT22;71405;47.674;-2.050;2023-08-17T09:41:40;22.70;67.90
81935;DHT22;71405;47.674;-2.050;2023-08-17T09:44:08;22.60;67.80
81935;DHT22;71405;47.674;-2.050;2023-08-17T09:46:34;22.60;67.80
81935;DHT22;71405;47.674;-2.050;2023-08-17T09:49:02;22.70;67.80
81935;DHT22;71405;47.674;-2.050;2023-08-17T09:51:30;22.60;67.90
81935;DHT22;71405;47.674;-2.050;2023-08-17T09:53:57;22.70;67.90
81935;DHT22;71405;47.674;-2.050;2023-08-17T09:56:23;22.60;67.90
81935;DHT22;71405;47.674;-2.050;2023-08-17T09:58:50;22.60;67.90
81935;DHT22;71405;47.674;-2.050;2023-08-17T10:01:16;22.70;67.90
81935;DHT22;71405;47.674;-2.050;2023-08-17T10:03:43;22.70;67.90
81935;DHT22;71405;47.674;-2.050;2023-08-17T10:06:13;22.70;67.80
81935;DHT22;71405;47.674;-2.050;2023-08-17T10:08:46;22.70;67.70
81935;DHT22;71405;47.674;-2.050;2023-08-17T10:11:12;22.70;67.60
81935;DHT22;71405;47.674;-2.050;2023-08-17T10:13:46;22.70;67.60
81935;DHT22;71405;47.674;-2.050;2023-08-17T10:22:39;22.70;67.40
81935;DHT22;71405;47.674;-2.050;2023-08-17T10:25:11;22.70;67.50
81935;DHT22;71405;47.674;-2.050;2023-08-17T10:27:39;22.80;67.50
81935;DHT22;71405;47.674;-2.050;2023-08-17T10:30:07;22.80;67.60
81935;DHT22;71405;47.674;-2.050;2023-08-17T10:32:34;22.90;67.60
81935;DHT22;71405;47.674;-2.050;2023-08-17T10:35:01;22.90;67.60
81935;DHT22;71405;47.674;-2.050;2023-08-17T10:37:28;22.90;68.30
81935;DHT22;71405;47.674;-2.050;2023-08-17T10:39:54;22.90;68.60
81935;DHT22;71405;47.674;-2.050;2023-08-17T10:42:34;22.90;68.90
81935;DHT22;71405;47.674;-2.050;2023-08-17T10:45:01;23.00;69.10
81935;DHT22;71405;47.674;-2.050;2023-08-17T10:47:32;23.00;69.30
81935;DHT22;71405;47.674;-2.050;2023-08-17T10:50:01;23.00;69.10
81935;DHT22;71405;47.674;-2.050;2023-08-17T10:52:31;23.10;69.40
81935;DHT22;71405;47.674;-2.050;2023-08-17T10:55:05;23.10;69.50
81935;DHT22;71405;47.674;-2.050;2023-08-17T10:57:36;23.10;69.40
81935;DHT22;71405;47.674;-2.050;2023-08-17T11:02:40;23.10;69.50
81935;DHT22;71405;47.674;-2.050;2023-08-17T11:05:06;23.10;69.50
81935;DHT22;71405;47.674;-2.050;2023-08-17T11:07:43;23.10;69.40
81935;DHT22;71405;47.674;-2.050;2023-08-17T11:10:26;23.20;69.40
81935;DHT22;71405;47.674;-2.050;2023-08-17T11:12:54;23.20;69.10
81935;DHT22;71405;47.674;-2.050;2023-08-17T11:15:45;23.20;68.90
81935;DHT22;71405;47.674;-2.050;2023-08-17T11:18:13;23.20;68.80
81935;DHT22;71405;47.674;-2.050;2023-08-17T11:20:40;23.20;68.90
81935;DHT22;71405;47.674;-2.050;2023-08-17T11:23:07;23.20;68.90
81935;DHT22;71405;47.674;-2.050;2023-08-17T11:25:33;23.20;68.80
81935;DHT22;71405;47.674;-2.050;2023-08-17T11:28:03;23.30;68.40
81935;DHT22;71405;47.674;-2.050;2023-08-17T11:30:29;23.30;68.70
81935;DHT22;71405;47.674;-2.050;2023-08-17T11:32:56;23.30;68.80
81935;DHT22;71405;47.674;-2.050;2023-08-17T11:35:21;23.30;68.90
81935;DHT22;71405;47.674;-2.050;2023-08-17T11:37:48;23.30;69.00
81935;DHT22;71405;47.674;-2.050;2023-08-17T11:40:15;23.30;69.10
81935;DHT22;71405;47.674;-2.050;2023-08-17T11:42:42;23.30;69.10
81935;DHT22;71405;47.674;-2.050;2023-08-17T11:45:10;23.30;69.10
81935;DHT22;71405;47.674;-2.050;2023-08-17T11:47:41;23.30;69.20
81935;DHT22;71405;47.674;-2.050;2023-08-17T11:50:13;23.20;68.90
81935;DHT22;71405;47.674;-2.050;2023-08-17T11:52:40;23.30;69.00
81935;DHT22;71405;47.674;-2.050;2023-08-17T11:55:08;23.20;69.10
81935;DHT22;71405;47.674;-2.050;2023-08-17T11:57:37;23.20;69.10
81935;DHT22;71405;47.674;-2.050;2023-08-17T12:00:04;23.20;69.10
81935;DHT22;71405;47.674;-2.050;2023-08-17T12:02:35;23.20;69.10
81935;DHT22;71405;47.674;-2.050;2023-08-17T12:05:07;23.20;69.10
81935;DHT22;71405;47.674;-2.050;2023-08-17T12:07:35;23.20;69.00
81935;DHT22;71405;47.674;-2.050;2023-08-17T12:10:02;23.20;69.40
81935;DHT22;71405;47.674;-2.050;2023-08-17T12:12:28;23.20;69.40
81935;DHT22;71405;47.674;-2.050;2023-08-17T12:14:54;23.20;69.20
81935;DHT22;71405;47.674;-2.050;2023-08-17T12:17:21;23.20;69.30
81935;DHT22;71405;47.674;-2.050;2023-08-17T12:19:53;23.20;69.20
81935;DHT22;71405;47.674;-2.050;2023-08-17T12:22:19;23.20;69.20
81935;DHT22;71405;47.674;-2.050;2023-08-17T12:24:48;23.20;69.30
81935;DHT22;71405;47.674;-2.050;2023-08-17T12:27:14;23.20;69.10
81935;DHT22;71405;47.674;-2.050;2023-08-17T12:29:50;23.30;69.00
81935;DHT22;71405;47.674;-2.050;2023-08-17T12:32:18;23.30;69.10
81935;DHT22;71405;47.674;-2.050;2023-08-17T12:34:44;23.30;68.90
81935;DHT22;71405;47.674;-2.050;2023-08-17T12:37:10;23.30;68.90
81935;DHT22;71405;47.674;-2.050;2023-08-17T12:39:36;23.30;69.10
81935;DHT22;71405;47.674;-2.050;2023-08-17T12:42:05;23.30;68.90
81935;DHT22;71405;47.674;-2.050;2023-08-17T12:44:31;23.40;68.80
81935;DHT22;71405;47.674;-2.050;2023-08-17T12:46:57;23.40;68.80
81935;DHT22;71405;47.674;-2.050;2023-08-17T12:49:26;23.40;68.80
81935;DHT22;71405;47.674;-2.050;2023-08-17T12:51:51;23.40;68.80
81935;DHT22;71405;47.674;-2.050;2023-08-17T12:54:17;23.50;68.90
81935;DHT22;71405;47.674;-2.050;2023-08-17T12:56:44;23.50;68.80
81935;DHT22;71405;47.674;-2.050;2023-08-17T12:59:10;23.40;68.80
81935;DHT22;71405;47.674;-2.050;2023-08-17T13:01:36;23.40;68.70
81935;DHT22;71405;47.674;-2.050;2023-08-17T13:04:01;23.50;68.80
81935;DHT22;71405;47.674;-2.050;2023-08-17T13:06:27;23.50;68.70
81935;DHT22;71405;47.674;-2.050;2023-08-17T13:08:53;23.50;68.50
81935;DHT22;71405;47.674;-2.050;2023-08-17T13:11:18;23.50;68.70
81935;DHT22;71405;47.674;-2.050;2023-08-17T13:13:44;23.50;68.80
81935;DHT22;71405;47.674;-2.050;2023-08-17T13:16:10;23.50;68.60
81935;DHT22;71405;47.674;-2.050;2023-08-17T13:18:37;23.60;68.50
81935;DHT22;71405;47.674;-2.050;2023-08-17T13:21:03;23.60;68.60
81935;DHT22;71405;47.674;-2.050;2023-08-17T13:23:29;23.60;68.40
81935;DHT22;71405;47.674;-2.050;2023-08-17T13:25:54;23.50;68.60
81935;DHT22;71405;47.674;-2.050;2023-08-17T13:28:20;23.60;68.60
81935;DHT22;71405;47.674;-2.050;2023-08-17T13:30:46;23.60;68.40
81935;DHT22;71405;47.674;-2.050;2023-08-17T13:33:12;23.70;68.20
81935;DHT22;71405;47.674;-2.050;2023-08-17T13:35:38;23.80;68.20
81935;DHT22;71405;47.674;-2.050;2023-08-17T13:38:04;23.80;68.30
81935;DHT22;71405;47.674;-2.050;2023-08-17T13:40:30;23.80;68.10
81935;DHT22;71405;47.674;-2.050;2023-08-17T13:42:56;23.80;68.20
81935;DHT22;71405;47.674;-2.050;2023-08-17T13:45:24;23.80;68.30
81935;DHT22;71405;47.674;-2.050;2023-08-17T13:47:49;23.90;68.20
81935;DHT22;71405;47.674;-2.050;2023-08-17T13:50:15;23.90;68.10
81935;DHT22;71405;47.674;-2.050;2023-08-17T13:52:41;23.90;67.90
81935;DHT22;71405;47.674;-2.050;2023-08-17T13:55:07;24.00;67.90
81935;DHT22;71405;47.674;-2.050;2023-08-17T13:57:33;23.90;68.00
81935;DHT22;71405;47.674;-2.050;2023-08-17T13:59:59;23.90;68.10
81935;DHT22;71405;47.674;-2.050;2023-08-17T14:02:24;23.90;68.10
81935;DHT22;71405;47.674;-2.050;2023-08-17T14:04:50;24.00;67.80
81935;DHT22;71405;47.674;-2.050;2023-08-17T14:07:16;24.00;67.70
81935;DHT22;71405;47.674;-2.050;2023-08-17T14:09:41;24.10;67.40
81935;DHT22;71405;47.674;-2.050;2023-08-17T14:12:08;24.10;67.30
81935;DHT22;71405;47.674;-2.050;2023-08-17T14:14:34;24.20;67.20
81935;DHT22;71405;47.674;-2.050;2023-08-17T14:17:00;24.20;67.30
81935;DHT22;71405;47.674;-2.050;2023-08-17T14:19:28;24.20;67.20
81935;DHT22;71405;47.674;-2.050;2023-08-17T14:21:53;24.20;67.20
81935;DHT22;71405;47.674;-2.050;2023-08-17T14:24:19;24.20;67.20
81935;DHT22;71405;47.674;-2.050;2023-08-17T14:26:45;24.20;67.20
81935;DHT22;71405;47.674;-2.050;2023-08-17T14:29:10;24.20;67.20
81935;DHT22;71405;47.674;-2.050;2023-08-17T14:31:36;24.20;67.10
81935;DHT22;71405;47.674;-2.050;2023-08-17T14:34:02;24.30;67.00
81935;DHT22;71405;47.674;-2.050;2023-08-17T14:36:27;24.30;67.00
81935;DHT22;71405;47.674;-2.050;2023-08-17T14:38:53;24.30;66.90
81935;DHT22;71405;47.674;-2.050;2023-08-17T14:41:19;24.40;66.70
81935;DHT22;71405;47.674;-2.050;2023-08-17T14:43:44;24.40;66.60
81935;DHT22;71405;47.674;-2.050;2023-08-17T14:46:10;24.50;66.60
81935;DHT22;71405;47.674;-2.050;2023-08-17T14:48:36;24.50;66.50
81935;DHT22;71405;47.674;-2.050;2023-08-17T14:51:01;24.60;66.40
81935;DHT22;71405;47.674;-2.050;2023-08-17T14:53:27;24.60;66.40
81935;DHT22;71405;47.674;-2.050;2023-08-17T14:55:53;24.60;66.30
81935;DHT22;71405;47.674;-2.050;2023-08-17T14:58:20;24.60;66.20
81935;DHT22;71405;47.674;-2.050;2023-08-17T15:00:46;24.70;66.10
81935;DHT22;71405;47.674;-2.050;2023-08-17T15:03:11;24.70;66.00
81935;DHT22;71405;47.674;-2.050;2023-08-17T15:05:37;24.70;66.00
81935;DHT22;71405;47.674;-2.050;2023-08-17T15:08:04;24.80;66.00
81935;DHT22;71405;47.674;-2.050;2023-08-17T15:10:30;24.80;65.90
81935;DHT22;71405;47.674;-2.050;2023-08-17T15:12:56;24.90;65.60
81935;DHT22;71405;47.674;-2.050;2023-08-17T15:15:21;24.90;65.60
81935;DHT22;71405;47.674;-2.050;2023-08-17T15:17:47;24.90;65.70
81935;DHT22;71405;47.674;-2.050;2023-08-17T15:20:13;24.90;65.60
81935;DHT22;71405;47.674;-2.050;2023-08-17T15:22:38;24.90;65.70
81935;DHT22;71405;47.674;-2.050;2023-08-17T15:25:04;24.90;65.60
81935;DHT22;71405;47.674;-2.050;2023-08-17T15:27:30;24.90;65.60